createdAt,value
2019-03-28T00:00:09.258Z,73.93
2019-03-28T00:01:09.537Z,73.65
2019-03-28T00:02:09.296Z,73.74
2019-03-28T00:03:09.579Z,73.65
2019-03-28T00:04:09.334Z,74.02
2019-03-28T00:05:10.089Z,73.74
2019-03-28T00:06:09.372Z,73.83
2019-03-28T00:07:09.393Z,73.74
2019-03-28T00:08:12.371Z,73.65
2019-03-28T00:09:10.104Z,73.74
2019-03-28T00:10:10.082Z,73.74
2019-03-28T00:11:09.465Z,74.31
2019-03-28T00:12:09.482Z,74.12
2019-03-28T00:13:09.764Z,73.83
2019-03-28T00:14:09.521Z,73.93
2019-03-28T00:15:10.695Z,74.02
2019-03-28T00:16:09.826Z,74.02
2019-03-28T00:17:09.838Z,74.02
2019-03-28T00:18:09.595Z,74.02
2019-03-28T00:19:09.878Z,73.93
2019-03-28T00:20:10.056Z,74.12
2019-03-28T00:21:09.650Z,73.65
2019-03-28T00:22:09.672Z,73.93
2019-03-28T00:23:09.688Z,73.83
2019-03-28T00:24:09.967Z,73.83
2019-03-28T00:25:09.726Z,73.93
2019-03-28T00:26:10.012Z,73.93
2019-03-28T00:27:09.760Z,74.31
2019-03-28T00:28:10.041Z,73.83
2019-03-28T00:29:10.060Z,73.83
2019-03-28T00:30:09.821Z,74.21
2019-03-28T00:31:10.100Z,74.02
2019-03-28T00:32:09.856Z,74.02
2019-03-28T00:33:10.141Z,74.12
2019-03-28T00:34:10.224Z,73.93
2019-03-28T00:35:10.177Z,73.93
2019-03-28T00:36:09.929Z,73.93
2019-03-28T00:37:11.057Z,74.12
2019-03-28T00:38:10.231Z,74.21
2019-03-28T00:39:10.255Z,74.21
2019-03-28T00:40:10.267Z,74.31
2019-03-28T00:41:10.027Z,74.21
2019-03-28T00:42:10.386Z,74.12
2019-03-28T00:43:10.058Z,74.12
2019-03-28T00:44:10.080Z,74.12
2019-03-28T00:45:10.359Z,74.31
2019-03-28T00:46:10.381Z,73.93
2019-03-28T00:47:11.084Z,73.93
2019-03-28T00:48:10.160Z,73.93
2019-03-28T00:49:10.173Z,74.4
2019-03-28T00:50:10.565Z,74.4
2019-03-28T00:51:10.216Z,74.31
2019-03-28T00:52:10.491Z,74.12
2019-03-28T00:53:10.252Z,73.93
2019-03-28T00:54:10.540Z,74.31
2019-03-28T00:55:10.358Z,74.12
2019-03-28T00:56:10.571Z,74.02
2019-03-28T00:57:10.593Z,74.12
2019-03-28T00:58:10.604Z,74.02
2019-03-28T00:59:10.362Z,74.12
2019-03-28T01:00:10.642Z,74.02
2019-03-28T01:01:10.401Z,74.02
2019-03-28T01:02:10.679Z,74.21
2019-03-28T01:03:11.163Z,74.12
2019-03-28T01:04:10.717Z,74.12
2019-03-28T01:05:10.734Z,74.02
2019-03-28T01:06:10.756Z,74.21
2019-03-28T01:07:10.769Z,74.4
2019-03-28T01:08:10.527Z,74.4
2019-03-28T01:09:10.550Z,74.21
2019-03-28T01:10:10.567Z,74.21
2019-03-28T01:11:10.852Z,74.4
2019-03-28T01:12:10.865Z,74.4
2019-03-28T01:13:10.624Z,74.5
2019-03-28T01:14:10.910Z,74.4
2019-03-28T01:15:10.658Z,74.12
2019-03-28T01:16:10.940Z,74.02
2019-03-28T01:17:10.704Z,74.6
2019-03-28T01:18:10.977Z,74.12
2019-03-28T01:19:10.732Z,74.6
2019-03-28T01:20:11.016Z,74.02
2019-03-28T01:21:10.771Z,74.6
2019-03-28T01:22:10.788Z,74.12
2019-03-28T01:23:11.070Z,74.12
2019-03-28T01:24:11.217Z,74.12
2019-03-28T01:25:11.109Z,74.21
2019-03-28T01:26:10.872Z,74.21
2019-03-28T01:27:11.144Z,74.37
2019-03-28T01:28:10.901Z,74.31
2019-03-28T01:29:11.186Z,74.27
2019-03-28T01:30:11.202Z,73.74
2019-03-28T01:31:10.956Z,74.4
2019-03-28T01:32:10.976Z,73.65
2019-03-28T01:33:10.995Z,74.6
2019-03-28T01:34:11.275Z,74.56
2019-03-28T01:35:11.030Z,74.37
2019-03-28T01:36:11.312Z,74.37
2019-03-28T01:37:11.076Z,74.18
2019-03-28T01:38:11.089Z,74.46
2019-03-28T01:39:11.110Z,74.5
2019-03-28T01:40:11.122Z,74.4
2019-03-28T01:41:11.407Z,74.21
2019-03-28T01:42:11.162Z,74.37
2019-03-28T01:43:11.445Z,74.6
2019-03-28T01:44:11.199Z,74.6
2019-03-28T01:45:11.221Z,74.46
2019-03-28T01:46:11.237Z,74.46
2019-03-28T01:47:11.519Z,74.37
2019-03-28T01:48:11.540Z,74.5
2019-03-28T01:49:11.294Z,74.46
2019-03-28T01:50:11.574Z,74.5
2019-03-28T01:51:11.337Z,74.37
2019-03-28T01:52:11.623Z,74.4
2019-03-28T01:53:12.261Z,74.37
2019-03-28T01:54:11.388Z,74.46
2019-03-28T01:55:11.670Z,74.46
2019-03-28T01:56:11.430Z,74.5
2019-03-28T01:57:13.732Z,74.46
2019-03-28T01:58:11.719Z,74.37
2019-03-28T01:59:11.743Z,74.37
2019-03-28T02:00:12.301Z,74.46
2019-03-28T02:01:11.519Z,74.37
2019-03-28T02:02:11.799Z,74.27
2019-03-28T02:03:11.554Z,74.5
2019-03-28T02:04:11.577Z,74.46
2019-03-28T02:05:11.589Z,74.27
2019-03-28T02:06:11.607Z,74.5
2019-03-28T02:07:11.890Z,74.65
2019-03-28T02:08:11.913Z,74.5
2019-03-28T02:09:11.667Z,74.46
2019-03-28T02:10:11.944Z,74.65
2019-03-28T02:11:11.703Z,74.37
2019-03-28T02:12:11.987Z,74.65
2019-03-28T02:13:11.999Z,74.37
2019-03-28T02:14:12.402Z,74.37
2019-03-28T02:15:12.042Z,74.46
2019-03-28T02:16:11.795Z,74.46
2019-03-28T02:17:12.153Z,74.37
2019-03-28T02:18:11.831Z,74.27
2019-03-28T02:19:11.850Z,74.37
2019-03-28T02:20:12.563Z,74.27
2019-03-28T02:21:12.191Z,74.18
2019-03-28T02:22:11.907Z,74.37
2019-03-28T02:23:12.869Z,74.18
2019-03-28T02:24:11.944Z,74.37
2019-03-28T02:25:11.966Z,74.46
2019-03-28T02:26:12.244Z,74.27
2019-03-28T02:27:23.264Z,74.18
2019-03-28T02:28:12.285Z,74.46
2019-03-28T02:29:12.303Z,74.37
2019-03-28T02:30:12.063Z,74.37
2019-03-28T02:31:12.357Z,74.18
2019-03-28T02:32:12.097Z,74.37
2019-03-28T02:33:12.376Z,74.18
2019-03-28T02:34:12.146Z,74.37
2019-03-28T02:35:12.416Z,74.37
2019-03-28T02:36:12.251Z,74.37
2019-03-28T02:37:12.458Z,74.27
2019-03-28T02:38:12.481Z,74.18
2019-03-28T02:39:12.223Z,74.18
2019-03-28T02:40:12.249Z,74.37
2019-03-28T02:41:12.541Z,74.37
2019-03-28T02:42:12.284Z,74.18
2019-03-28T02:43:12.583Z,74.37
2019-03-28T02:44:12.720Z,74.37
2019-03-28T02:45:12.599Z,74.37
2019-03-28T02:46:12.361Z,74.37
2019-03-28T02:47:12.873Z,74.37
2019-03-28T02:48:12.655Z,74.37
2019-03-28T02:49:12.418Z,74.08
2019-03-28T02:50:13.589Z,73.99
2019-03-28T02:51:12.717Z,73.99
2019-03-28T02:52:12.754Z,73.99
2019-03-28T02:53:13.633Z,74.08
2019-03-28T02:54:12.765Z,74.08
2019-03-28T02:55:12.528Z,74.18
2019-03-28T02:56:12.806Z,74.18
2019-03-28T02:57:12.561Z,74.18
2019-03-28T02:58:13.306Z,74.27
2019-03-28T02:59:12.600Z,74.18
2019-03-28T03:00:12.616Z,74.18
2019-03-28T03:01:12.898Z,74.08
2019-03-28T03:02:12.657Z,74.08
2019-03-28T03:03:12.671Z,74.08
2019-03-28T03:04:12.688Z,74.27
2019-03-28T03:05:12.991Z,74.37
2019-03-28T03:06:12.728Z,74.18
2019-03-28T03:07:12.746Z,74.27
2019-03-28T03:08:13.029Z,74.37
2019-03-28T03:09:13.046Z,74.46
2019-03-28T03:10:12.809Z,74.08
2019-03-28T03:11:13.098Z,74.94
2019-03-28T03:12:13.102Z,74.37
2019-03-28T03:13:12.856Z,74.37
2019-03-28T03:14:14.191Z,74.37
2019-03-28T03:15:13.158Z,74.08
2019-03-28T03:16:13.175Z,74.27
2019-03-28T03:17:12.931Z,74.46
2019-03-28T03:18:12.945Z,74.18
2019-03-28T03:19:12.966Z,74.18
2019-03-28T03:20:12.983Z,74.94
2019-03-28T03:21:13.006Z,74.18
2019-03-28T03:22:13.285Z,74.18
2019-03-28T03:23:13.044Z,74.37
2019-03-28T03:24:13.329Z,74.18
2019-03-28T03:25:13.339Z,74.46
2019-03-28T03:26:13.362Z,74.08
2019-03-28T03:27:13.114Z,74.27
2019-03-28T03:28:13.135Z,74.94
2019-03-28T03:29:13.416Z,74.37
2019-03-28T03:30:13.436Z,74.46
2019-03-28T03:31:13.192Z,74.94
2019-03-28T03:32:13.208Z,74.94
2019-03-28T03:33:13.243Z,75.04
2019-03-28T03:34:13.279Z,74.56
2019-03-28T03:35:13.534Z,74.18
2019-03-28T03:36:13.546Z,74.75
2019-03-28T03:37:13.560Z,74.75
2019-03-28T03:38:13.317Z,74.75
2019-03-28T03:39:13.838Z,74.84
2019-03-28T03:40:13.616Z,74.75
2019-03-28T03:41:13.638Z,74.84
2019-03-28T03:42:13.394Z,74.75
2019-03-28T03:43:13.673Z,74.94
2019-03-28T03:44:13.687Z,74.75
2019-03-28T03:45:13.459Z,74.65
2019-03-28T03:46:13.464Z,74.94
2019-03-28T03:47:13.749Z,74.94
2019-03-28T03:48:14.697Z,74.84
2019-03-28T03:49:13.939Z,74.56
2019-03-28T03:50:13.546Z,74.65
2019-03-28T03:51:14.553Z,75.04
2019-03-28T03:52:13.841Z,74.65
2019-03-28T03:53:13.597Z,74.56
2019-03-28T03:54:13.916Z,74.75
2019-03-28T03:55:13.639Z,74.75
2019-03-28T03:56:13.924Z,74.56
2019-03-28T03:57:13.928Z,74.75
2019-03-28T03:58:19.228Z,74.75
2019-03-28T03:59:14.267Z,74.94
2019-03-28T04:00:13.989Z,74.65
2019-03-28T04:01:14.005Z,74.65
2019-03-28T04:02:13.761Z,74.65
2019-03-28T04:03:13.788Z,74.56
2019-03-28T04:04:13.801Z,74.56
2019-03-28T04:05:15.137Z,75.13
2019-03-28T04:06:14.095Z,74.75
2019-03-28T04:07:13.860Z,75.04
2019-03-28T04:08:14.140Z,74.75
2019-03-28T04:09:14.156Z,74.84
2019-03-28T04:10:14.170Z,74.94
2019-03-28T04:11:13.936Z,74.84
2019-03-28T04:12:14.214Z,74.84
2019-03-28T04:13:14.229Z,74.75
2019-03-28T04:14:13.983Z,74.75
2019-03-28T04:15:14.011Z,74.75
2019-03-28T04:16:14.288Z,74.84
2019-03-28T04:17:14.303Z,74.75
2019-03-28T04:18:14.144Z,74.75
2019-03-28T04:19:14.088Z,74.84
2019-03-28T04:20:14.360Z,74.75
2019-03-28T04:21:14.112Z,74.75
2019-03-28T04:22:14.145Z,74.75
2019-03-28T04:23:14.449Z,74.75
2019-03-28T04:24:14.432Z,74.84
2019-03-28T04:25:14.193Z,74.75
2019-03-28T04:26:14.208Z,74.65
2019-03-28T04:27:14.350Z,74.84
2019-03-28T04:28:24.703Z,74.75
2019-03-28T04:29:14.521Z,74.65
2019-03-28T04:30:14.538Z,74.65
2019-03-28T04:31:14.582Z,74.65
2019-03-28T04:32:14.583Z,74.75
2019-03-28T04:33:14.600Z,75.04
2019-03-28T04:34:14.356Z,74.75
2019-03-28T04:35:14.636Z,74.56
2019-03-28T04:36:14.766Z,75.04
2019-03-28T04:37:14.419Z,74.75
2019-03-28T04:38:14.694Z,74.75
2019-03-28T04:39:14.450Z,74.75
2019-03-28T04:40:14.471Z,74.75
2019-03-28T04:41:14.481Z,75.13
2019-03-28T04:42:14.765Z,75.13
2019-03-28T04:43:14.540Z,75.13
2019-03-28T04:44:14.542Z,74.94
2019-03-28T04:45:14.824Z,74.75
2019-03-28T04:46:14.578Z,75.04
2019-03-28T04:47:14.592Z,74.75
2019-03-28T04:48:14.616Z,74.75
2019-03-28T04:49:18.595Z,75.04
2019-03-28T04:50:14.649Z,74.65
2019-03-28T04:51:15.002Z,75.13
2019-03-28T04:52:14.717Z,75.13
2019-03-28T04:53:14.706Z,74.94
2019-03-28T04:54:14.727Z,75.04
2019-03-28T04:55:14.745Z,75.13
2019-03-28T04:56:14.824Z,74.94
2019-03-28T04:57:14.784Z,75.04
2019-03-28T04:58:14.797Z,75.04
2019-03-28T04:59:15.442Z,75.04
2019-03-28T05:00:14.842Z,75.23
2019-03-28T05:01:14.852Z,75.04
2019-03-28T05:02:15.135Z,75.04
2019-03-28T05:03:15.152Z,75.04
2019-03-28T05:04:15.331Z,75.13
2019-03-28T05:05:14.925Z,75.04
2019-03-28T05:06:15.206Z,75.04
2019-03-28T05:07:14.965Z,75.04
2019-03-28T05:08:14.981Z,75.04
2019-03-28T05:09:15.268Z,75.04
2019-03-28T05:10:15.422Z,75.04
2019-03-28T05:11:15.309Z,75.23
2019-03-28T05:12:15.058Z,74.65
2019-03-28T05:13:15.340Z,75.04
2019-03-28T05:14:15.357Z,74.84
2019-03-28T05:15:15.113Z,75.04
2019-03-28T05:16:15.129Z,75.13
2019-03-28T05:17:15.412Z,75.04
2019-03-28T05:18:15.437Z,75.04
2019-03-28T05:19:15.186Z,75.13
2019-03-28T05:20:16.135Z,75.13
2019-03-28T05:21:15.485Z,74.65
2019-03-28T05:22:15.512Z,75.13
2019-03-28T05:23:15.261Z,75.13
2019-03-28T05:24:15.277Z,75.04
2019-03-28T05:25:15.560Z,74.94
2019-03-28T05:26:15.643Z,75.04
2019-03-28T05:27:16.666Z,75.04
2019-03-28T05:28:15.350Z,74.94
2019-03-28T05:29:15.636Z,74.75
2019-03-28T05:30:15.649Z,75.13
2019-03-28T05:31:15.410Z,74.94
2019-03-28T05:32:15.434Z,75.04
2019-03-28T05:33:15.708Z,75.13
2019-03-28T05:34:15.724Z,75.13
2019-03-28T05:35:15.484Z,74.84
2019-03-28T05:36:15.499Z,74.84
2019-03-28T05:37:15.523Z,75.04
2019-03-28T05:38:15.804Z,75.42
2019-03-28T05:39:15.819Z,75.04
2019-03-28T05:40:15.575Z,75.13
2019-03-28T05:41:17.369Z,75.04
2019-03-28T05:42:15.613Z,75.04
2019-03-28T05:43:15.893Z,74.94
2019-03-28T05:44:15.651Z,74.75
2019-03-28T05:45:15.665Z,74.94
2019-03-28T05:46:15.844Z,75.04
2019-03-28T05:47:15.702Z,74.94
2019-03-28T05:48:15.722Z,75.04
2019-03-28T05:49:15.745Z,75.04
2019-03-28T05:50:16.022Z,75.04
2019-03-28T05:51:16.039Z,75.04
2019-03-28T05:52:16.057Z,74.94
2019-03-28T05:53:15.815Z,75.04
2019-03-28T05:54:16.104Z,74.94
2019-03-28T05:55:16.116Z,75.13
2019-03-28T05:56:15.869Z,74.94
2019-03-28T05:57:15.890Z,74.84
2019-03-28T05:58:16.171Z,74.56
2019-03-28T05:59:16.185Z,74.75
2019-03-28T06:00:15.943Z,74.75
2019-03-28T06:01:15.963Z,74.65
2019-03-28T06:02:16.251Z,74.75
2019-03-28T06:03:16.350Z,74.84
2019-03-28T06:04:16.017Z,74.84
2019-03-28T06:05:16.037Z,74.75
2019-03-28T06:06:16.319Z,74.75
2019-03-28T06:07:16.337Z,74.75
2019-03-28T06:08:16.091Z,74.84
2019-03-28T06:09:16.376Z,74.75
2019-03-28T06:10:18.606Z,74.65
2019-03-28T06:11:16.144Z,74.84
2019-03-28T06:12:18.860Z,74.84
2019-03-28T06:13:16.448Z,74.75
2019-03-28T06:14:16.232Z,74.56
2019-03-28T06:15:16.224Z,75.04
2019-03-28T06:16:16.503Z,74.56
2019-03-28T06:17:16.260Z,74.94
2019-03-28T06:18:16.329Z,74.56
2019-03-28T06:19:16.298Z,74.75
2019-03-28T06:20:16.580Z,74.65
2019-03-28T06:21:16.329Z,74.56
2019-03-28T06:22:16.351Z,74.94
2019-03-28T06:23:16.649Z,74.94
2019-03-28T06:24:16.393Z,74.84
2019-03-28T06:25:16.678Z,74.75
2019-03-28T06:26:16.426Z,75.04
2019-03-28T06:27:16.444Z,74.46
2019-03-28T06:28:16.460Z,74.37
2019-03-28T06:29:26.143Z,74.18
2019-03-28T06:30:16.764Z,74.18
2019-03-28T06:31:16.521Z,74.27
2019-03-28T06:32:16.535Z,74.37
2019-03-28T06:33:16.818Z,74.08
2019-03-28T06:34:16.572Z,74.18
2019-03-28T06:35:16.595Z,73.99
2019-03-28T06:36:17.020Z,73.99
2019-03-28T06:37:16.628Z,74.27
2019-03-28T06:38:16.910Z,74.18
2019-03-28T06:39:16.930Z,74.18
2019-03-28T06:40:16.683Z,74.37
2019-03-28T06:41:16.966Z,74.18
2019-03-28T06:42:16.981Z,74.37
2019-03-28T06:43:16.739Z,74.37
2019-03-28T06:44:17.021Z,74.37
2019-03-28T06:45:17.043Z,74.46
2019-03-28T06:46:16.796Z,74.27
2019-03-28T06:47:17.082Z,74.46
2019-03-28T06:48:16.834Z,74.37
2019-03-28T06:49:17.114Z,74.46
2019-03-28T06:50:17.137Z,74.37
2019-03-28T06:51:16.885Z,74.27
2019-03-28T06:52:16.908Z,74.37
2019-03-28T06:53:17.196Z,74.08
2019-03-28T06:54:16.944Z,73.99
2019-03-28T06:55:17.226Z,74.02
2019-03-28T06:56:17.402Z,73.99
2019-03-28T06:57:18.897Z,74.12
2019-03-28T06:58:17.026Z,74.21
2019-03-28T06:59:17.301Z,74.27
2019-03-28T07:00:17.067Z,74.08
2019-03-28T07:01:17.342Z,74.18
2019-03-28T07:02:17.394Z,74.08
2019-03-28T07:03:17.375Z,74.37
2019-03-28T07:04:17.134Z,73.89
2019-03-28T07:05:17.150Z,73.89
2019-03-28T07:06:17.171Z,73.83
2019-03-28T07:07:20.588Z,73.83
2019-03-28T07:08:17.212Z,73.8
2019-03-28T07:09:18.279Z,73.7
2019-03-28T07:10:17.244Z,73.83
2019-03-28T07:11:17.269Z,74.12
2019-03-28T07:12:17.284Z,73.65
2019-03-28T07:13:17.565Z,74.02
2019-03-28T07:14:17.324Z,74.12
2019-03-28T07:15:17.603Z,73.65
2019-03-28T07:16:17.356Z,74.12
2019-03-28T07:17:17.642Z,73.83
2019-03-28T07:18:17.657Z,73.55
2019-03-28T07:19:17.416Z,73.93
2019-03-28T07:20:17.695Z,73.36
2019-03-28T07:21:18.236Z,73.93
2019-03-28T07:22:17.733Z,73.83
2019-03-28T07:23:17.487Z,73.83
2019-03-28T07:24:17.768Z,73.55
2019-03-28T07:25:17.795Z,73.45
2019-03-28T07:26:17.547Z,73.26
2019-03-28T07:27:17.825Z,73.55
2019-03-28T07:28:17.587Z,73.36
2019-03-28T07:29:17.608Z,73.45
2019-03-28T07:30:17.622Z,73.36
2019-03-28T07:31:17.638Z,73.55
2019-03-28T07:32:17.920Z,73.36
2019-03-28T07:33:17.944Z,73.45
2019-03-28T07:34:17.733Z,73.36
2019-03-28T07:35:17.719Z,73.36
2019-03-28T07:36:18.002Z,73.55
2019-03-28T07:37:17.752Z,73.26
2019-03-28T07:38:18.048Z,73.36
2019-03-28T07:39:21.488Z,73.36
2019-03-28T07:40:17.813Z,73.26
2019-03-28T07:41:18.948Z,73.36
2019-03-28T07:42:18.109Z,73.36
2019-03-28T07:43:18.130Z,73.36
2019-03-28T07:44:17.899Z,73.17
2019-03-28T07:45:18.171Z,73.17
2019-03-28T07:46:18.186Z,73.36
2019-03-28T07:47:18.208Z,73.45
2019-03-28T07:48:17.970Z,73.45
2019-03-28T07:49:17.979Z,73.65
2019-03-28T07:50:18.267Z,73.36
2019-03-28T07:51:18.281Z,73.65
2019-03-28T07:52:20.054Z,73.17
2019-03-28T07:53:19.801Z,73.45
2019-03-28T07:54:18.076Z,73.36
2019-03-28T07:55:18.927Z,73.36
2019-03-28T07:56:18.375Z,73.17
2019-03-28T07:57:18.394Z,73.45
2019-03-28T07:58:18.414Z,73.17
2019-03-28T07:59:18.435Z,73.11
2019-03-28T08:00:18.454Z,72.78
2019-03-28T08:01:20.360Z,73.39
2019-03-28T08:02:18.490Z,73.11
2019-03-28T08:03:18.250Z,72.82
2019-03-28T08:04:18.528Z,72.82
2019-03-28T08:05:18.548Z,72.72
2019-03-28T08:06:18.577Z,72.82
2019-03-28T08:07:18.325Z,72.44
2019-03-28T08:08:18.605Z,72.72
2019-03-28T08:09:19.909Z,73.01
2019-03-28T08:10:18.760Z,72.72
2019-03-28T08:11:18.732Z,73.11
2019-03-28T08:12:25.345Z,72.63
2019-03-28T08:13:18.703Z,72.72
2019-03-28T08:14:18.464Z,73.01
2019-03-28T08:15:18.479Z,73.01
2019-03-28T08:16:18.501Z,73.01
2019-03-28T08:17:18.517Z,72.72
2019-03-28T08:18:19.466Z,72.82
2019-03-28T08:19:18.821Z,72.72
2019-03-28T08:20:18.854Z,72.92
2019-03-28T08:21:18.858Z,72.72
2019-03-28T08:22:18.881Z,72.72
2019-03-28T08:23:18.633Z,72.82
2019-03-28T08:24:18.653Z,72.72
2019-03-28T08:25:18.674Z,72.63
2019-03-28T08:26:18.691Z,72.72
2019-03-28T08:27:18.716Z,72.82
2019-03-28T08:28:18.732Z,73.01
2019-03-28T08:29:18.756Z,73.01
2019-03-28T08:30:21.615Z,73.01
2019-03-28T08:31:19.051Z,73.01
2019-03-28T08:32:19.072Z,73.01
2019-03-28T08:33:19.092Z,72.34
2019-03-28T08:34:19.132Z,72.44
2019-03-28T08:35:19.142Z,71.96
2019-03-28T08:36:19.148Z,72.72
2019-03-28T08:37:18.907Z,73.49
2019-03-28T08:38:18.922Z,73.39
2019-03-28T08:39:18.944Z,73.39
2019-03-28T08:40:18.962Z,73.39
2019-03-28T08:41:19.623Z,72.82
2019-03-28T08:42:19.659Z,73.24
2019-03-28T08:43:19.284Z,73.24
2019-03-28T08:44:22.462Z,73.24
2019-03-28T08:45:19.321Z,73.14
2019-03-28T08:46:19.079Z,72.76
2019-03-28T08:47:19.096Z,72.76
2019-03-28T08:48:19.118Z,72.76
2019-03-28T08:49:19.142Z,73.24
2019-03-28T08:50:19.418Z,73.33
2019-03-28T08:51:19.437Z,73.05
2019-03-28T08:52:19.201Z,72.76
2019-03-28T08:53:19.216Z,72.96
2019-03-28T08:54:19.233Z,72.86
2019-03-28T08:55:19.516Z,73.05
2019-03-28T08:56:19.538Z,72.28
2019-03-28T08:57:19.557Z,72.38
2019-03-28T08:58:19.577Z,72.09
2019-03-28T08:59:19.333Z,72.38
2019-03-28T09:00:32.820Z,72.19
2019-03-28T09:01:19.633Z,72.67
2019-03-28T09:02:19.654Z,72.67
2019-03-28T09:03:19.414Z,72.38
2019-03-28T09:04:19.426Z,72.28
2019-03-28T09:05:19.713Z,72.38
2019-03-28T09:06:19.760Z,72.38
2019-03-28T09:07:20.127Z,72.86
2019-03-28T09:08:19.511Z,72.57
2019-03-28T09:09:21.110Z,72.38
2019-03-28T09:10:19.544Z,72.38
2019-03-28T09:11:21.433Z,72.48
2019-03-28T09:12:19.855Z,73.05
2019-03-28T09:13:19.603Z,73.14
2019-03-28T09:14:19.886Z,72.19
2019-03-28T09:15:19.906Z,72.28
2019-03-28T09:16:19.920Z,72.28
2019-03-28T09:17:19.961Z,72.28
2019-03-28T09:18:19.702Z,71.91
2019-03-28T09:19:19.986Z,72.09
2019-03-28T09:20:19.740Z,72.09
2019-03-28T09:21:19.765Z,72.38
2019-03-28T09:22:19.778Z,72.48
2019-03-28T09:23:20.060Z,72.38
2019-03-28T09:24:19.820Z,71.91
2019-03-28T09:25:20.099Z,72
2019-03-28T09:26:20.119Z,72
2019-03-28T09:27:20.144Z,72.09
2019-03-28T09:28:19.901Z,72.09
2019-03-28T09:29:20.176Z,72
2019-03-28T09:30:20.195Z,72
2019-03-28T09:31:22.539Z,72
2019-03-28T09:32:19.970Z,72
2019-03-28T09:33:20.252Z,72
2019-03-28T09:34:20.012Z,72.09
2019-03-28T09:35:20.045Z,72
2019-03-28T09:36:20.374Z,72.09
2019-03-28T09:37:20.331Z,72.09
2019-03-28T09:38:20.090Z,72.19
2019-03-28T09:39:20.106Z,72.28
2019-03-28T09:40:20.393Z,72.19
2019-03-28T09:41:20.148Z,72.19
2019-03-28T09:42:20.173Z,72.38
2019-03-28T09:43:20.193Z,72.48
2019-03-28T09:44:20.468Z,72.48
2019-03-28T09:45:20.235Z,72.19
2019-03-28T09:46:20.512Z,72.09
2019-03-28T09:47:20.528Z,72.28
2019-03-28T09:48:20.285Z,72.38
2019-03-28T09:49:20.314Z,72.38
2019-03-28T09:50:20.660Z,72.19
2019-03-28T09:51:20.358Z,72.09
2019-03-28T09:52:20.368Z,72.19
2019-03-28T09:53:20.642Z,72
2019-03-28T09:54:20.663Z,72.09
2019-03-28T09:55:21.268Z,72.48
2019-03-28T09:56:20.701Z,72.57
2019-03-28T09:57:20.731Z,72.19
2019-03-28T09:58:20.557Z,72.28
2019-03-28T09:59:20.761Z,72.48
2019-03-28T10:00:20.522Z,72.38
2019-03-28T10:01:20.537Z,72.48
2019-03-28T10:02:20.821Z,72
2019-03-28T10:03:20.840Z,71.91
2019-03-28T10:04:20.601Z,72.09
2019-03-28T10:05:20.615Z,71.52
2019-03-28T10:06:20.898Z,71.62
2019-03-28T10:07:20.654Z,71.56
2019-03-28T10:08:20.676Z,71.81
2019-03-28T10:09:20.696Z,71.72
2019-03-28T10:10:20.981Z,71.66
2019-03-28T10:11:20.738Z,72.09
2019-03-28T10:12:21.022Z,72
2019-03-28T10:13:20.773Z,72.13
2019-03-28T10:14:20.797Z,72.19
2019-03-28T10:15:21.083Z,71.94
2019-03-28T10:16:20.833Z,72
2019-03-28T10:17:21.125Z,72.38
2019-03-28T10:18:21.134Z,72.28
2019-03-28T10:19:20.889Z,72.28
2019-03-28T10:20:20.914Z,72.38
2019-03-28T10:21:21.194Z,72.48
2019-03-28T10:22:22.315Z,72.28
2019-03-28T10:23:21.235Z,72.38
2019-03-28T10:24:20.992Z,72.28
2019-03-28T10:25:21.021Z,72.38
2019-03-28T10:26:21.031Z,72.67
2019-03-28T10:27:21.580Z,72.67
2019-03-28T10:28:21.339Z,72.67
2019-03-28T10:29:21.090Z,72.57
2019-03-28T10:30:21.374Z,72.86
2019-03-28T10:31:21.393Z,73.05
2019-03-28T10:32:21.154Z,73.24
2019-03-28T10:33:21.433Z,73.43
2019-03-28T10:34:21.190Z,73.33
2019-03-28T10:35:21.478Z,72.96
2019-03-28T10:36:21.234Z,73.05
2019-03-28T10:37:21.517Z,73.33
2019-03-28T10:38:21.268Z,73.24
2019-03-28T10:39:21.549Z,73.24
2019-03-28T10:40:21.309Z,73.33
2019-03-28T10:41:21.590Z,73.05
2019-03-28T10:42:21.609Z,73.24
2019-03-28T10:43:21.377Z,73.14
2019-03-28T10:44:21.389Z,73.33
2019-03-28T10:45:21.672Z,73.62
2019-03-28T10:46:21.706Z,73.33
2019-03-28T10:47:21.447Z,73.14
2019-03-28T10:48:23.498Z,72.96
2019-03-28T10:49:21.486Z,72.96
2019-03-28T10:50:21.768Z,72.96
2019-03-28T10:51:21.849Z,72.86
2019-03-28T10:52:21.626Z,73.43
2019-03-28T10:53:21.565Z,73.33
2019-03-28T10:54:25.684Z,73.33
2019-03-28T10:55:21.616Z,73.08
2019-03-28T10:56:24.853Z,72.76
2019-03-28T10:57:32.650Z,72.48
2019-03-28T10:58:21.989Z,72.8
2019-03-28T10:59:25.792Z,72.8
2019-03-28T11:00:26.464Z,72.61
2019-03-28T11:01:49.868Z,73.08
2019-03-28T11:02:22.006Z,72.51
2019-03-28T11:03:22.027Z,72.51
2019-03-28T11:04:22.551Z,72.13
2019-03-28T11:05:21.804Z,72.23
2019-03-28T11:06:22.087Z,72.32
2019-03-28T11:07:21.844Z,72.23
2019-03-28T11:08:21.873Z,72.71
2019-03-28T11:09:21.886Z,72.51
2019-03-28T11:10:21.908Z,72.32
2019-03-28T11:11:22.564Z,72.03
2019-03-28T11:12:22.207Z,72.13
2019-03-28T11:13:22.229Z,72.61
2019-03-28T11:14:21.995Z,72.03
2019-03-28T11:15:22.267Z,72.13
2019-03-28T11:16:22.311Z,71.94
2019-03-28T11:17:22.313Z,71.75
2019-03-28T11:18:22.066Z,71.94
2019-03-28T11:19:22.350Z,71.84
2019-03-28T11:20:22.105Z,71.84
2019-03-28T11:21:22.135Z,71.66
2019-03-28T11:22:22.147Z,71.84
2019-03-28T11:23:22.430Z,71.75
2019-03-28T11:24:22.451Z,71.75
2019-03-28T11:25:22.472Z,71.75
2019-03-28T11:26:22.490Z,71.37
2019-03-28T11:27:22.269Z,71.75
2019-03-28T11:28:25.651Z,71.69
2019-03-28T11:29:22.335Z,71.59
2019-03-28T11:30:22.575Z,71.56
2019-03-28T11:31:22.596Z,71.27
2019-03-28T11:32:22.386Z,71.37
2019-03-28T11:33:22.484Z,71.37
2019-03-28T11:34:22.657Z,71.37
2019-03-28T11:35:22.722Z,71.66
2019-03-28T11:36:22.435Z,71.56
2019-03-28T11:37:28.767Z,71.66
2019-03-28T11:38:22.531Z,71.56
2019-03-28T11:39:23.556Z,71.75
2019-03-28T11:40:24.503Z,71.66
2019-03-28T11:41:22.589Z,71.56
2019-03-28T11:42:22.627Z,71.46
2019-03-28T11:43:22.870Z,71.84
2019-03-28T11:44:22.863Z,71.84
2019-03-28T11:45:22.616Z,71.94
2019-03-28T11:46:22.636Z,71.75
2019-03-28T11:47:24.776Z,71.84
2019-03-28T11:48:22.679Z,71.84
2019-03-28T11:49:22.960Z,71.94
2019-03-28T11:50:22.986Z,71.75
2019-03-28T11:51:22.739Z,71.66
2019-03-28T11:52:23.128Z,71.75
2019-03-28T11:53:23.054Z,71.56
2019-03-28T11:54:23.063Z,71.84
2019-03-28T11:55:22.820Z,71.94
2019-03-28T11:56:23.101Z,71.94
2019-03-28T11:57:23.124Z,71.94
2019-03-28T11:58:22.880Z,71.56
2019-03-28T11:59:23.164Z,71.66
2019-03-28T12:00:23.186Z,71.84
2019-03-28T12:01:23.202Z,71.46
2019-03-28T12:02:25.278Z,72.03
2019-03-28T12:03:22.987Z,72.13
2019-03-28T12:04:23.003Z,72.03
2019-03-28T12:05:23.029Z,72.13
2019-03-28T12:06:23.043Z,72.03
2019-03-28T12:07:23.326Z,72.13
2019-03-28T12:08:23.351Z,72.32
2019-03-28T12:09:23.367Z,72.32
2019-03-28T12:10:23.395Z,72.61
2019-03-28T12:11:23.146Z,72.23
2019-03-28T12:12:23.427Z,72.32
2019-03-28T12:13:23.186Z,72.42
2019-03-28T12:14:23.205Z,72.42
2019-03-28T12:15:23.229Z,72.42
2019-03-28T12:16:23.248Z,72.42
2019-03-28T12:17:23.281Z,72.42
2019-03-28T12:18:25.043Z,72.71
2019-03-28T12:19:23.314Z,72.42
2019-03-28T12:20:23.329Z,72.51
2019-03-28T12:21:23.349Z,72.42
2019-03-28T12:22:23.633Z,72.51
2019-03-28T12:23:24.053Z,72.42
2019-03-28T12:24:23.670Z,72.42
2019-03-28T12:25:23.692Z,72.42
2019-03-28T12:26:23.714Z,72.71
2019-03-28T12:27:23.470Z,72.61
2019-03-28T12:28:23.492Z,72.32
2019-03-28T12:29:24.061Z,72.42
2019-03-28T12:30:23.558Z,72.23
2019-03-28T12:31:23.556Z,72.13
2019-03-28T12:32:23.569Z,72.32
2019-03-28T12:33:23.590Z,72.23
2019-03-28T12:34:23.610Z,72.32
2019-03-28T12:35:23.897Z,72.23
2019-03-28T12:36:23.913Z,72.23
2019-03-28T12:37:23.930Z,72.42
2019-03-28T12:38:23.973Z,72.23
2019-03-28T12:39:23.711Z,72.51
2019-03-28T12:40:23.998Z,72.32
2019-03-28T12:41:23.756Z,72.32
2019-03-28T12:42:23.771Z,72.23
2019-03-28T12:43:24.065Z,72.32
2019-03-28T12:44:23.813Z,72.03
2019-03-28T12:45:24.097Z,72.13
2019-03-28T12:46:25.627Z,72.13
2019-03-28T12:47:23.875Z,72.13
2019-03-28T12:48:23.897Z,72.13
2019-03-28T12:49:23.916Z,72.13
2019-03-28T12:50:24.202Z,72.03
2019-03-28T12:51:24.779Z,72.23
2019-03-28T12:52:23.976Z,72.13
2019-03-28T12:53:23.999Z,72.23
2019-03-28T12:54:24.022Z,72.13